sensor_id;sensor_type;location;lat;lon;timestamp;P1;durP1;ratioP1;P2;durP2;ratioP2
14191;SDS011;7177;48.572;7.838;2022-11-15T00:00:21;13.00;;;10.13;;
14191;SDS011;7177;48.572;7.838;2022-11-15T00:02:46;12.37;;;10.17;;
14191;SDS011;7177;48.572;7.838;2022-11-15T00:05:12;16.00;;;10.37;;
14191;SDS011;7177;48.572;7.838;2022-11-15T00:07:37;14.30;;;11.10;;
14191;SDS011;7177;48.572;7.838;2022-11-15T00:10:03;16.07;;;10.73;;
14191;SDS011;7177;48.572;7.838;2022-11-15T00:12:29;14.00;;;11.03;;
14191;SDS011;7177;48.572;7.838;2022-11-15T00:14:55;14.40;;;11.27;;
14191;SDS011;7177;48.572;7.838;2022-11-15T00:17:20;18.03;;;11.83;;
14191;SDS011;7177;48.572;7.838;2022-11-15T00:19:46;17.37;;;11.40;;
14191;SDS011;7177;48.572;7.838;2022-11-15T00:22:11;13.17;;;10.77;;
14191;SDS011;7177;48.572;7.838;2022-11-15T00:24:37;17.30;;;12.33;;
14191;SDS011;7177;48.572;7.838;2022-11-15T00:27:02;13.57;;;10.43;;
14191;SDS011;7177;48.572;7.838;2022-11-15T00:29:28;12.00;;;10.30;;
14191;SDS011;7177;48.572;7.838;2022-11-15T00:31:53;13.97;;;10.70;;
14191;SDS011;7177;48.572;7.838;2022-11-15T00:34:19;13.87;;;10.77;;
14191;SDS011;7177;48.572;7.838;2022-11-15T00:36:44;13.03;;;11.07;;
14191;SDS011;7177;48.572;7.838;2022-11-15T00:39:10;15.03;;;11.20;;
14191;SDS011;7177;48.572;7.838;2022-11-15T00:41:35;17.43;;;11.33;;
14191;SDS011;7177;48.572;7.838;2022-11-15T00:44:01;11.97;;;10.20;;
14191;SDS011;7177;48.572;7.838;2022-11-15T00:46:27;11.20;;;9.20;;
14191;SDS011;7177;48.572;7.838;2022-11-15T00:48:52;12.70;;;9.27;;
14191;SDS011;7177;48.572;7.838;2022-11-15T00:51:18;10.43;;;9.27;;
14191;SDS011;7177;48.572;7.838;2022-11-15T00:53:43;12.47;;;9.27;;
14191;SDS011;7177;48.572;7.838;2022-11-15T00:56:09;14.53;;;10.17;;
14191;SDS011;7177;48.572;7.838;2022-11-15T00:58:34;12.53;;;9.90;;
14191;SDS011;7177;48.572;7.838;2022-11-15T01:01:05;12.70;;;8.80;;
14191;SDS011;7177;48.572;7.838;2022-11-15T01:03:35;11.83;;;8.60;;
14191;SDS011;7177;48.572;7.838;2022-11-15T01:06:01;9.87;;;8.53;;
14191;SDS011;7177;48.572;7.838;2022-11-15T01:08:27;10.83;;;8.53;;
14191;SDS011;7177;48.572;7.838;2022-11-15T01:10:53;9.40;;;7.87;;
14191;SDS011;7177;48.572;7.838;2022-11-15T01:13:18;11.03;;;8.10;;
14191;SDS011;7177;48.572;7.838;2022-11-15T01:15:44;10.20;;;7.57;;
14191;SDS011;7177;48.572;7.838;2022-11-15T01:18:09;8.27;;;7.37;;
14191;SDS011;7177;48.572;7.838;2022-11-15T01:20:39;8.67;;;7.53;;
14191;SDS011;7177;48.572;7.838;2022-11-15T01:23:07;9.33;;;7.90;;
14191;SDS011;7177;48.572;7.838;2022-11-15T01:25:33;8.90;;;7.87;;
14191;SDS011;7177;48.572;7.838;2022-11-15T01:27:59;9.97;;;7.83;;
14191;SDS011;7177;48.572;7.838;2022-11-15T01:30:24;8.57;;;7.47;;
14191;SDS011;7177;48.572;7.838;2022-11-15T01:32:50;9.47;;;7.10;;
14191;SDS011;7177;48.572;7.838;2022-11-15T01:35:15;12.33;;;8.50;;
14191;SDS011;7177;48.572;7.838;2022-11-15T01:37:41;11.63;;;8.27;;
14191;SDS011;7177;48.572;7.838;2022-11-15T01:40:07;10.87;;;7.57;;
14191;SDS011;7177;48.572;7.838;2022-11-15T01:42:33;10.83;;;8.33;;
14191;SDS011;7177;48.572;7.838;2022-11-15T01:44:58;10.67;;;8.20;;
14191;SDS011;7177;48.572;7.838;2022-11-15T01:47:35;10.90;;;8.67;;
14191;SDS011;7177;48.572;7.838;2022-11-15T01:50:08;9.67;;;8.23;;
14191;SDS011;7177;48.572;7.838;2022-11-15T01:52:37;12.77;;;8.97;;
14191;SDS011;7177;48.572;7.838;2022-11-15T01:55:12;11.80;;;8.90;;
14191;SDS011;7177;48.572;7.838;2022-11-15T01:57:43;10.30;;;8.23;;
14191;SDS011;7177;48.572;7.838;2022-11-15T02:00:11;10.37;;;8.73;;
14191;SDS011;7177;48.572;7.838;2022-11-15T02:02:37;12.30;;;8.20;;
14191;SDS011;7177;48.572;7.838;2022-11-15T02:05:04;11.57;;;9.23;;
14191;SDS011;7177;48.572;7.838;2022-11-15T02:07:30;10.80;;;8.73;;
14191;SDS011;7177;48.572;7.838;2022-11-15T02:10:00;14.03;;;8.53;;
14191;SDS011;7177;48.572;7.838;2022-11-15T02:12:34;13.40;;;9.27;;
14191;SDS011;7177;48.572;7.838;2022-11-15T02:15:01;12.40;;;8.77;;
14191;SDS011;7177;48.572;7.838;2022-11-15T02:23:15;10.70;;;9.27;;
14191;SDS011;7177;48.572;7.838;2022-11-15T02:26:18;11.50;;;8.73;;
14191;SDS011;7177;48.572;7.838;2022-11-15T02:29:04;9.37;;;8.10;;
14191;SDS011;7177;48.572;7.838;2022-11-15T02:34:34;12.23;;;9.60;;
14191;SDS011;7177;48.572;7.838;2022-11-15T02:39:44;11.03;;;8.70;;
14191;SDS011;7177;48.572;7.838;2022-11-15T02:42:24;15.50;;;9.10;;
14191;SDS011;7177;48.572;7.838;2022-11-15T02:45:11;11.27;;;8.70;;
14191;SDS011;7177;48.572;7.838;2022-11-15T02:47:43;12.20;;;8.97;;
14191;SDS011;7177;48.572;7.838;2022-11-15T02:50:16;10.67;;;8.50;;
14191;SDS011;7177;48.572;7.838;2022-11-15T02:52:45;11.43;;;7.93;;
14191;SDS011;7177;48.572;7.838;2022-11-15T02:55:26;8.47;;;7.17;;
14191;SDS011;7177;48.572;7.838;2022-11-15T02:57:52;9.97;;;7.60;;
14191;SDS011;7177;48.572;7.838;2022-11-15T03:00:55;11.27;;;8.03;;
14191;SDS011;7177;48.572;7.838;2022-11-15T03:09:09;13.07;;;8.20;;
14191;SDS011;7177;48.572;7.838;2022-11-15T03:11:47;12.67;;;8.67;;
14191;SDS011;7177;48.572;7.838;2022-11-15T03:17:15;11.17;;;8.07;;
14191;SDS011;7177;48.572;7.838;2022-11-15T03:19:45;9.80;;;7.87;;
14191;SDS011;7177;48.572;7.838;2022-11-15T03:22:15;11.77;;;8.03;;
14191;SDS011;7177;48.572;7.838;2022-11-15T03:24:44;9.93;;;7.37;;
14191;SDS011;7177;48.572;7.838;2022-11-15T03:27:13;9.50;;;7.90;;
14191;SDS011;7177;48.572;7.838;2022-11-15T03:29:43;15.37;;;8.57;;
14191;SDS011;7177;48.572;7.838;2022-11-15T03:32:23;8.40;;;6.97;;
14191;SDS011;7177;48.572;7.838;2022-11-15T03:34:53;10.60;;;8.00;;
14191;SDS011;7177;48.572;7.838;2022-11-15T03:40:24;9.70;;;7.50;;
14191;SDS011;7177;48.572;7.838;2022-11-15T03:45:45;13.47;;;8.63;;
14191;SDS011;7177;48.572;7.838;2022-11-15T03:48:35;9.87;;;8.03;;
14191;SDS011;7177;48.572;7.838;2022-11-15T03:51:06;10.63;;;8.30;;
14191;SDS011;7177;48.572;7.838;2022-11-15T03:53:32;9.03;;;7.57;;
14191;SDS011;7177;48.572;7.838;2022-11-15T03:55:58;11.20;;;7.73;;
14191;SDS011;7177;48.572;7.838;2022-11-15T03:58:24;10.00;;;7.20;;
14191;SDS011;7177;48.572;7.838;2022-11-15T04:00:49;11.77;;;7.60;;
14191;SDS011;7177;48.572;7.838;2022-11-15T04:03:15;8.47;;;6.67;;
14191;SDS011;7177;48.572;7.838;2022-11-15T04:05:40;7.80;;;6.13;;
14191;SDS011;7177;48.572;7.838;2022-11-15T04:08:06;9.67;;;6.73;;
14191;SDS011;7177;48.572;7.838;2022-11-15T04:10:31;13.03;;;6.70;;
14191;SDS011;7177;48.572;7.838;2022-11-15T04:12:57;10.13;;;6.83;;
14191;SDS011;7177;48.572;7.838;2022-11-15T04:15:23;8.50;;;6.60;;
14191;SDS011;7177;48.572;7.838;2022-11-15T04:17:49;8.77;;;6.53;;
14191;SDS011;7177;48.572;7.838;2022-11-15T04:20:18;8.17;;;5.97;;
14191;SDS011;7177;48.572;7.838;2022-11-15T04:23:21;7.67;;;6.40;;
14191;SDS011;7177;48.572;7.838;2022-11-15T04:26:10;7.40;;;5.80;;
14191;SDS011;7177;48.572;7.838;2022-11-15T04:28:37;6.93;;;6.20;;
14191;SDS011;7177;48.572;7.838;2022-11-15T04:31:23;8.90;;;5.83;;
14191;SDS011;7177;48.572;7.838;2022-11-15T04:33:49;6.60;;;5.80;;
14191;SDS011;7177;48.572;7.838;2022-11-15T04:36:14;8.17;;;6.50;;
14191;SDS011;7177;48.572;7.838;2022-11-15T04:38:58;7.13;;;5.67;;
14191;SDS011;7177;48.572;7.838;2022-11-15T04:41:24;9.93;;;5.80;;
14191;SDS011;7177;48.572;7.838;2022-11-15T04:43:50;7.43;;;5.30;;
14191;SDS011;7177;48.572;7.838;2022-11-15T04:46:15;7.37;;;5.87;;
14191;SDS011;7177;48.572;7.838;2022-11-15T04:48:41;10.33;;;5.53;;
14191;SDS011;7177;48.572;7.838;2022-11-15T04:51:06;9.77;;;6.43;;
14191;SDS011;7177;48.572;7.838;2022-11-15T04:53:32;8.17;;;6.40;;
14191;SDS011;7177;48.572;7.838;2022-11-15T04:55:57;10.17;;;6.90;;
14191;SDS011;7177;48.572;7.838;2022-11-15T04:58:23;9.70;;;6.63;;
14191;SDS011;7177;48.572;7.838;2022-11-15T05:00:48;11.43;;;6.90;;
14191;SDS011;7177;48.572;7.838;2022-11-15T05:03:14;10.20;;;7.80;;
14191;SDS011;7177;48.572;7.838;2022-11-15T05:05:58;11.97;;;6.90;;
14191;SDS011;7177;48.572;7.838;2022-11-15T05:08:24;8.83;;;5.93;;
14191;SDS011;7177;48.572;7.838;2022-11-15T05:10:50;7.80;;;5.80;;
14191;SDS011;7177;48.572;7.838;2022-11-15T05:13:15;9.37;;;6.07;;
14191;SDS011;7177;48.572;7.838;2022-11-15T05:15:41;10.17;;;6.30;;
14191;SDS011;7177;48.572;7.838;2022-11-15T05:18:07;7.63;;;5.70;;
14191;SDS011;7177;48.572;7.838;2022-11-15T05:20:33;10.47;;;6.30;;
14191;SDS011;7177;48.572;7.838;2022-11-15T05:22:59;10.43;;;6.13;;
14191;SDS011;7177;48.572;7.838;2022-11-15T05:25:24;7.50;;;6.33;;
14191;SDS011;7177;48.572;7.838;2022-11-15T05:27:50;8.30;;;5.53;;
14191;SDS011;7177;48.572;7.838;2022-11-15T05:30:16;9.07;;;5.80;;
14191;SDS011;7177;48.572;7.838;2022-11-15T05:32:42;7.30;;;6.00;;
14191;SDS011;7177;48.572;7.838;2022-11-15T05:35:08;7.33;;;5.23;;
14191;SDS011;7177;48.572;7.838;2022-11-15T05:37:45;8.77;;;6.90;;
14191;SDS011;7177;48.572;7.838;2022-11-15T05:40:11;10.47;;;7.27;;
14191;SDS011;7177;48.572;7.838;2022-11-15T05:42:36;10.57;;;7.23;;
14191;SDS011;7177;48.572;7.838;2022-11-15T05:45:03;8.73;;;6.60;;
14191;SDS011;7177;48.572;7.838;2022-11-15T05:47:33;7.67;;;6.07;;
14191;SDS011;7177;48.572;7.838;2022-11-15T05:50:01;11.33;;;7.33;;
14191;SDS011;7177;48.572;7.838;2022-11-15T05:52:28;8.17;;;6.20;;
14191;SDS011;7177;48.572;7.838;2022-11-15T05:54:56;8.60;;;6.93;;
14191;SDS011;7177;48.572;7.838;2022-11-15T05:57:22;9.83;;;6.30;;
14191;SDS011;7177;48.572;7.838;2022-11-15T05:59:49;10.30;;;6.40;;
14191;SDS011;7177;48.572;7.838;2022-11-15T06:02:14;11.17;;;6.00;;
14191;SDS011;7177;48.572;7.838;2022-11-15T06:04:40;7.53;;;5.90;;
14191;SDS011;7177;48.572;7.838;2022-11-15T06:07:05;7.53;;;5.87;;
14191;SDS011;7177;48.572;7.838;2022-11-15T06:09:31;7.77;;;5.83;;
14191;SDS011;7177;48.572;7.838;2022-11-15T06:11:56;7.90;;;5.40;;
14191;SDS011;7177;48.572;7.838;2022-11-15T06:14:22;8.57;;;5.73;;
14191;SDS011;7177;48.572;7.838;2022-11-15T06:16:48;7.83;;;6.07;;
14191;SDS011;7177;48.572;7.838;2022-11-15T06:19:13;7.33;;;6.03;;
14191;SDS011;7177;48.572;7.838;2022-11-15T06:21:39;7.53;;;6.00;;
14191;SDS011;7177;48.572;7.838;2022-11-15T06:24:04;7.93;;;5.90;;
14191;SDS011;7177;48.572;7.838;2022-11-15T06:26:30;9.97;;;5.53;;
14191;SDS011;7177;48.572;7.838;2022-11-15T06:28:56;7.23;;;5.70;;
14191;SDS011;7177;48.572;7.838;2022-11-15T06:31:22;7.73;;;5.57;;
14191;SDS011;7177;48.572;7.838;2022-11-15T06:33:48;6.83;;;5.47;;
14191;SDS011;7177;48.572;7.838;2022-11-15T06:36:14;7.87;;;5.33;;
14191;SDS011;7177;48.572;7.838;2022-11-15T06:38:41;6.60;;;5.90;;
14191;SDS011;7177;48.572;7.838;2022-11-15T06:41:08;7.57;;;6.73;;
14191;SDS011;7177;48.572;7.838;2022-11-15T06:43:35;6.07;;;5.47;;
14191;SDS011;7177;48.572;7.838;2022-11-15T06:46:02;7.20;;;6.10;;
14191;SDS011;7177;48.572;7.838;2022-11-15T06:48:29;9.20;;;6.83;;
14191;SDS011;7177;48.572;7.838;2022-11-15T06:50:57;9.73;;;6.90;;
14191;SDS011;7177;48.572;7.838;2022-11-15T06:53:23;12.30;;;7.30;;
14191;SDS011;7177;48.572;7.838;2022-11-15T06:55:49;9.47;;;6.97;;
14191;SDS011;7177;48.572;7.838;2022-11-15T06:58:15;10.07;;;6.17;;
14191;SDS011;7177;48.572;7.838;2022-11-15T07:00:41;9.33;;;6.00;;
14191;SDS011;7177;48.572;7.838;2022-11-15T07:03:07;14.90;;;10.27;;
14191;SDS011;7177;48.572;7.838;2022-11-15T07:05:33;9.53;;;6.80;;
14191;SDS011;7177;48.572;7.838;2022-11-15T07:07:59;8.43;;;6.70;;
14191;SDS011;7177;48.572;7.838;2022-11-15T07:10:25;9.07;;;6.03;;
14191;SDS011;7177;48.572;7.838;2022-11-15T07:12:51;8.87;;;6.07;;
14191;SDS011;7177;48.572;7.838;2022-11-15T07:15:18;8.67;;;6.00;;
14191;SDS011;7177;48.572;7.838;2022-11-15T07:17:47;8.20;;;5.77;;
14191;SDS011;7177;48.572;7.838;2022-11-15T07:20:13;7.57;;;6.30;;
14191;SDS011;7177;48.572;7.838;2022-11-15T07:22:42;8.83;;;6.63;;
14191;SDS011;7177;48.572;7.838;2022-11-15T07:25:10;10.67;;;7.67;;
14191;SDS011;7177;48.572;7.838;2022-11-15T07:27:36;10.67;;;7.83;;
14191;SDS011;7177;48.572;7.838;2022-11-15T07:30:02;13.60;;;8.63;;
14191;SDS011;7177;48.572;7.838;2022-11-15T07:32:28;11.13;;;7.70;;
14191;SDS011;7177;48.572;7.838;2022-11-15T07:34:53;24.37;;;8.23;;
14191;SDS011;7177;48.572;7.838;2022-11-15T07:37:19;12.30;;;7.83;;
14191;SDS011;7177;48.572;7.838;2022-11-15T07:39:45;15.87;;;8.10;;
14191;SDS011;7177;48.572;7.838;2022-11-15T07:42:11;10.40;;;7.10;;
14191;SDS011;7177;48.572;7.838;2022-11-15T07:44:55;11.27;;;7.17;;
14191;SDS011;7177;48.572;7.838;2022-11-15T07:47:20;8.87;;;7.20;;
14191;SDS011;7177;48.572;7.838;2022-11-15T07:49:46;10.07;;;6.80;;
14191;SDS011;7177;48.572;7.838;2022-11-15T07:52:12;10.07;;;7.70;;
14191;SDS011;7177;48.572;7.838;2022-11-15T07:54:38;8.77;;;6.30;;
14191;SDS011;7177;48.572;7.838;2022-11-15T07:57:04;8.33;;;6.57;;
14191;SDS011;7177;48.572;7.838;2022-11-15T07:59:30;9.43;;;7.03;;
14191;SDS011;7177;48.572;7.838;2022-11-15T08:01:56;8.33;;;6.63;;
14191;SDS011;7177;48.572;7.838;2022-11-15T08:04:22;11.97;;;6.97;;
14191;SDS011;7177;48.572;7.838;2022-11-15T08:06:47;8.57;;;6.77;;
14191;SDS011;7177;48.572;7.838;2022-11-15T08:09:13;16.40;;;7.90;;
14191;SDS011;7177;48.572;7.838;2022-11-15T08:11:38;12.47;;;6.93;;
14191;SDS011;7177;48.572;7.838;2022-11-15T08:14:04;11.17;;;7.23;;
14191;SDS011;7177;48.572;7.838;2022-11-15T08:16:30;10.17;;;6.23;;
14191;SDS011;7177;48.572;7.838;2022-11-15T08:18:55;10.23;;;7.40;;
14191;SDS011;7177;48.572;7.838;2022-11-15T08:21:21;9.80;;;7.47;;
14191;SDS011;7177;48.572;7.838;2022-11-15T08:23:47;9.97;;;7.43;;
14191;SDS011;7177;48.572;7.838;2022-11-15T08:26:12;11.90;;;7.33;;
14191;SDS011;7177;48.572;7.838;2022-11-15T08:28:39;9.63;;;7.87;;
14191;SDS011;7177;48.572;7.838;2022-11-15T08:31:04;10.50;;;7.80;;
14191;SDS011;7177;48.572;7.838;2022-11-15T08:33:30;9.20;;;7.47;;
14191;SDS011;7177;48.572;7.838;2022-11-15T08:35:58;9.90;;;7.10;;
14191;SDS011;7177;48.572;7.838;2022-11-15T08:38:24;8.97;;;7.40;;
14191;SDS011;7177;48.572;7.838;2022-11-15T08:40:51;7.57;;;6.70;;
14191;SDS011;7177;48.572;7.838;2022-11-15T08:43:18;8.37;;;7.07;;
14191;SDS011;7177;48.572;7.838;2022-11-15T08:45:43;8.90;;;6.73;;
14191;SDS011;7177;48.572;7.838;2022-11-15T08:48:09;9.23;;;6.73;;
14191;SDS011;7177;48.572;7.838;2022-11-15T08:50:35;8.60;;;6.53;;
14191;SDS011;7177;48.572;7.838;2022-11-15T08:53:05;10.50;;;6.90;;
14191;SDS011;7177;48.572;7.838;2022-11-15T08:55:31;8.77;;;6.50;;
14191;SDS011;7177;48.572;7.838;2022-11-15T08:57:57;9.07;;;7.17;;
14191;SDS011;7177;48.572;7.838;2022-11-15T09:00:22;9.60;;;7.07;;
14191;SDS011;7177;48.572;7.838;2022-11-15T09:02:48;8.57;;;6.40;;
14191;SDS011;7177;48.572;7.838;2022-11-15T09:05:14;9.20;;;6.90;;
14191;SDS011;7177;48.572;7.838;2022-11-15T09:07:40;13.43;;;7.30;;
14191;SDS011;7177;48.572;7.838;2022-11-15T09:10:06;9.37;;;6.47;;
14191;SDS011;7177;48.572;7.838;2022-11-15T09:12:32;10.07;;;6.90;;
14191;SDS011;7177;48.572;7.838;2022-11-15T09:14:57;10.20;;;7.37;;
14191;SDS011;7177;48.572;7.838;2022-11-15T09:17:23;10.73;;;7.40;;
14191;SDS011;7177;48.572;7.838;2022-11-15T09:19:49;8.57;;;7.03;;
14191;SDS011;7177;48.572;7.838;2022-11-15T09:22:14;10.83;;;7.73;;
14191;SDS011;7177;48.572;7.838;2022-11-15T09:24:40;10.63;;;6.77;;
14191;SDS011;7177;48.572;7.838;2022-11-15T09:27:05;10.93;;;7.47;;
14191;SDS011;7177;48.572;7.838;2022-11-15T09:29:31;12.20;;;8.43;;
14191;SDS011;7177;48.572;7.838;2022-11-15T09:31:56;13.10;;;7.90;;
14191;SDS011;7177;48.572;7.838;2022-11-15T09:34:22;11.17;;;7.77;;
14191;SDS011;7177;48.572;7.838;2022-11-15T09:36:47;9.77;;;6.73;;
14191;SDS011;7177;48.572;7.838;2022-11-15T09:39:13;8.93;;;7.10;;
14191;SDS011;7177;48.572;7.838;2022-11-15T09:41:47;11.03;;;8.07;;
14191;SDS011;7177;48.572;7.838;2022-11-15T09:49:34;12.70;;;6.93;;
14191;SDS011;7177;48.572;7.838;2022-11-15T09:51:59;9.00;;;6.33;;
14191;SDS011;7177;48.572;7.838;2022-11-15T09:54:27;11.40;;;6.27;;
14191;SDS011;7177;48.572;7.838;2022-11-15T09:57:17;8.33;;;6.63;;
14191;SDS011;7177;48.572;7.838;2022-11-15T10:00:01;10.20;;;7.07;;
14191;SDS011;7177;48.572;7.838;2022-11-15T10:05:10;10.40;;;6.73;;
14191;SDS011;7177;48.572;7.838;2022-11-15T10:10:24;8.20;;;6.13;;
14191;SDS011;7177;48.572;7.838;2022-11-15T10:12:57;8.23;;;6.20;;
14191;SDS011;7177;48.572;7.838;2022-11-15T10:15:23;9.80;;;6.70;;
14191;SDS011;7177;48.572;7.838;2022-11-15T10:18:08;8.77;;;6.80;;
14191;SDS011;7177;48.572;7.838;2022-11-15T10:20:52;8.93;;;6.23;;
14191;SDS011;7177;48.572;7.838;2022-11-15T10:23:23;8.40;;;6.43;;
14191;SDS011;7177;48.572;7.838;2022-11-15T10:25:55;8.00;;;6.00;;
14191;SDS011;7177;48.572;7.838;2022-11-15T10:28:29;9.53;;;6.30;;
14191;SDS011;7177;48.572;7.838;2022-11-15T10:30:59;8.40;;;5.67;;
14191;SDS011;7177;48.572;7.838;2022-11-15T10:44:09;6.50;;;4.93;;
14191;SDS011;7177;48.572;7.838;2022-11-15T10:46:36;6.07;;;4.60;;
14191;SDS011;7177;48.572;7.838;2022-11-15T10:49:12;5.20;;;4.00;;
14191;SDS011;7177;48.572;7.838;2022-11-15T10:51:40;6.77;;;4.30;;
14191;SDS011;7177;48.572;7.838;2022-11-15T10:57:14;5.07;;;3.77;;
14191;SDS011;7177;48.572;7.838;2022-11-15T10:59:43;5.67;;;3.17;;
14191;SDS011;7177;48.572;7.838;2022-11-15T11:05:05;5.30;;;3.80;;
14191;SDS011;7177;48.572;7.838;2022-11-15T11:07:54;5.10;;;3.73;;
14191;SDS011;7177;48.572;7.838;2022-11-15T11:10:22;6.13;;;3.97;;
14191;SDS011;7177;48.572;7.838;2022-11-15T11:12:48;4.73;;;3.90;;
14191;SDS011;7177;48.572;7.838;2022-11-15T11:15:15;5.70;;;3.57;;
14191;SDS011;7177;48.572;7.838;2022-11-15T11:17:49;4.50;;;3.87;;
14191;SDS011;7177;48.572;7.838;2022-11-15T11:20:25;7.90;;;3.63;;
14191;SDS011;7177;48.572;7.838;2022-11-15T11:26:12;4.40;;;3.33;;
14191;SDS011;7177;48.572;7.838;2022-11-15T11:29:02;6.20;;;3.70;;
14191;SDS011;7177;48.572;7.838;2022-11-15T11:37:29;6.67;;;3.90;;
14191;SDS011;7177;48.572;7.838;2022-11-15T11:42:54;6.87;;;3.97;;
14191;SDS011;7177;48.572;7.838;2022-11-15T11:50:45;6.23;;;3.70;;
14191;SDS011;7177;48.572;7.838;2022-11-15T11:53:25;7.10;;;3.50;;
14191;SDS011;7177;48.572;7.838;2022-11-15T11:56:01;5.20;;;3.50;;
14191;SDS011;7177;48.572;7.838;2022-11-15T12:09:28;3.80;;;3.10;;
14191;SDS011;7177;48.572;7.838;2022-11-15T12:12:09;6.30;;;3.80;;
14191;SDS011;7177;48.572;7.838;2022-11-15T12:17:16;4.40;;;3.40;;
14191;SDS011;7177;48.572;7.838;2022-11-15T12:19:46;4.10;;;3.23;;
14191;SDS011;7177;48.572;7.838;2022-11-15T12:22:18;5.63;;;3.47;;
14191;SDS011;7177;48.572;7.838;2022-11-15T12:27:40;5.00;;;3.57;;
14191;SDS011;7177;48.572;7.838;2022-11-15T12:30:20;7.20;;;4.00;;
14191;SDS011;7177;48.572;7.838;2022-11-15T12:35:35;6.37;;;3.60;;
14191;SDS011;7177;48.572;7.838;2022-11-15T12:38:09;5.63;;;4.30;;
14191;SDS011;7177;48.572;7.838;2022-11-15T12:40:37;5.03;;;3.77;;
14191;SDS011;7177;48.572;7.838;2022-11-15T12:43:36;5.57;;;3.30;;
14191;SDS011;7177;48.572;7.838;2022-11-15T12:46:05;6.90;;;3.73;;
14191;SDS011;7177;48.572;7.838;2022-11-15T12:51:02;4.30;;;3.47;;
14191;SDS011;7177;48.572;7.838;2022-11-15T12:53:29;3.77;;;2.87;;
14191;SDS011;7177;48.572;7.838;2022-11-15T13:06:56;5.70;;;3.53;;
14191;SDS011;7177;48.572;7.838;2022-11-15T13:12:47;5.57;;;3.83;;
14191;SDS011;7177;48.572;7.838;2022-11-15T13:14:59;3.63;;;2.93;;
14191;SDS011;7177;48.572;7.838;2022-11-15T13:19:59;9.40;;;3.57;;
14191;SDS011;7177;48.572;7.838;2022-11-15T13:22:26;5.33;;;3.53;;
14191;SDS011;7177;48.572;7.838;2022-11-15T13:25:15;4.07;;;3.27;;
14191;SDS011;7177;48.572;7.838;2022-11-15T13:27:44;5.37;;;3.70;;
14191;SDS011;7177;48.572;7.838;2022-11-15T13:30:27;4.80;;;3.40;;
14191;SDS011;7177;48.572;7.838;2022-11-15T13:32:54;8.03;;;5.03;;
14191;SDS011;7177;48.572;7.838;2022-11-15T13:35:22;7.67;;;4.80;;
14191;SDS011;7177;48.572;7.838;2022-11-15T13:37:49;5.30;;;4.20;;
14191;SDS011;7177;48.572;7.838;2022-11-15T13:40:20;7.40;;;4.07;;
14191;SDS011;7177;48.572;7.838;2022-11-15T13:42:48;5.63;;;4.10;;
14191;SDS011;7177;48.572;7.838;2022-11-15T13:45:15;6.83;;;3.80;;
14191;SDS011;7177;48.572;7.838;2022-11-15T13:47:42;5.77;;;3.90;;
14191;SDS011;7177;48.572;7.838;2022-11-15T13:50:12;6.07;;;3.53;;
14191;SDS011;7177;48.572;7.838;2022-11-15T13:52:38;3.80;;;3.40;;
14191;SDS011;7177;48.572;7.838;2022-11-15T13:55:12;4.93;;;3.40;;
14191;SDS011;7177;48.572;7.838;2022-11-15T13:57:48;5.80;;;3.60;;
14191;SDS011;7177;48.572;7.838;2022-11-15T14:00:27;6.00;;;3.20;;
14191;SDS011;7177;48.572;7.838;2022-11-15T14:03:05;6.13;;;3.20;;
14191;SDS011;7177;48.572;7.838;2022-11-15T14:05:41;3.97;;;2.87;;
14191;SDS011;7177;48.572;7.838;2022-11-15T14:10:45;8.60;;;3.63;;
14191;SDS011;7177;48.572;7.838;2022-11-15T14:13:26;6.13;;;3.10;;
14191;SDS011;7177;48.572;7.838;2022-11-15T14:15:53;4.57;;;3.50;;
14191;SDS011;7177;48.572;7.838;2022-11-15T14:21:10;5.93;;;3.50;;
14191;SDS011;7177;48.572;7.838;2022-11-15T14:23:36;5.07;;;3.73;;
14191;SDS011;7177;48.572;7.838;2022-11-15T14:26:02;7.57;;;4.50;;
14191;SDS011;7177;48.572;7.838;2022-11-15T14:28:29;6.90;;;4.20;;
14191;SDS011;7177;48.572;7.838;2022-11-15T14:30:58;8.03;;;4.77;;
14191;SDS011;7177;48.572;7.838;2022-11-15T14:33:26;11.07;;;5.13;;
14191;SDS011;7177;48.572;7.838;2022-11-15T14:36:11;8.87;;;5.10;;
14191;SDS011;7177;48.572;7.838;2022-11-15T14:38:38;8.47;;;4.87;;
14191;SDS011;7177;48.572;7.838;2022-11-15T14:41:05;8.40;;;4.87;;
14191;SDS011;7177;48.572;7.838;2022-11-15T14:43:31;6.87;;;5.33;;
14191;SDS011;7177;48.572;7.838;2022-11-15T14:45:56;9.03;;;5.37;;
14191;SDS011;7177;48.572;7.838;2022-11-15T14:48:22;7.13;;;5.30;;
14191;SDS011;7177;48.572;7.838;2022-11-15T14:50:48;9.83;;;5.63;;
14191;SDS011;7177;48.572;7.838;2022-11-15T14:53:15;8.60;;;5.83;;
14191;SDS011;7177;48.572;7.838;2022-11-15T14:55:42;9.73;;;6.00;;
14191;SDS011;7177;48.572;7.838;2022-11-15T14:58:08;11.80;;;7.00;;
14191;SDS011;7177;48.572;7.838;2022-11-15T15:00:35;10.03;;;6.73;;
14191;SDS011;7177;48.572;7.838;2022-11-15T15:03:02;12.60;;;7.50;;
14191;SDS011;7177;48.572;7.838;2022-11-15T15:08:01;9.87;;;6.27;;
14191;SDS011;7177;48.572;7.838;2022-11-15T15:10:27;11.63;;;7.40;;
14191;SDS011;7177;48.572;7.838;2022-11-15T15:12:57;12.97;;;7.43;;
14191;SDS011;7177;48.572;7.838;2022-11-15T15:15:24;10.47;;;6.90;;
14191;SDS011;7177;48.572;7.838;2022-11-15T15:17:51;11.30;;;7.63;;
14191;SDS011;7177;48.572;7.838;2022-11-15T15:20:17;8.93;;;6.70;;
14191;SDS011;7177;48.572;7.838;2022-11-15T15:22:43;12.40;;;6.77;;
14191;SDS011;7177;48.572;7.838;2022-11-15T15:27:45;9.60;;;6.43;;
14191;SDS011;7177;48.572;7.838;2022-11-15T15:30:11;10.93;;;7.30;;
14191;SDS011;7177;48.572;7.838;2022-11-15T15:32:37;8.73;;;6.83;;
14191;SDS011;7177;48.572;7.838;2022-11-15T15:35:02;8.20;;;5.93;;
14191;SDS011;7177;48.572;7.838;2022-11-15T15:37:28;9.30;;;6.60;;
14191;SDS011;7177;48.572;7.838;2022-11-15T15:39:55;8.17;;;5.60;;
14191;SDS011;7177;48.572;7.838;2022-11-15T15:42:22;7.73;;;5.73;;
14191;SDS011;7177;48.572;7.838;2022-11-15T15:44:51;8.70;;;5.77;;
14191;SDS011;7177;48.572;7.838;2022-11-15T15:47:18;8.47;;;5.60;;
14191;SDS011;7177;48.572;7.838;2022-11-15T15:49:48;6.97;;;5.47;;
14191;SDS011;7177;48.572;7.838;2022-11-15T15:52:15;10.63;;;4.80;;
14191;SDS011;7177;48.572;7.838;2022-11-15T15:54:40;7.60;;;5.60;;
14191;SDS011;7177;48.572;7.838;2022-11-15T15:57:06;7.03;;;5.47;;
14191;SDS011;7177;48.572;7.838;2022-11-15T15:59:35;8.47;;;5.20;;
14191;SDS011;7177;48.572;7.838;2022-11-15T16:02:01;6.83;;;4.97;;
14191;SDS011;7177;48.572;7.838;2022-11-15T16:04:26;7.07;;;4.80;;
14191;SDS011;7177;48.572;7.838;2022-11-15T16:06:54;8.17;;;4.47;;
14191;SDS011;7177;48.572;7.838;2022-11-15T16:09:24;6.03;;;4.47;;
14191;SDS011;7177;48.572;7.838;2022-11-15T16:12:09;7.57;;;4.93;;
14191;SDS011;7177;48.572;7.838;2022-11-15T16:14:35;7.90;;;5.00;;
14191;SDS011;7177;48.572;7.838;2022-11-15T16:17:00;7.73;;;5.90;;
14191;SDS011;7177;48.572;7.838;2022-11-15T16:19:26;7.63;;;5.30;;
14191;SDS011;7177;48.572;7.838;2022-11-15T16:21:52;7.53;;;4.63;;
14191;SDS011;7177;48.572;7.838;2022-11-15T16:24:18;6.03;;;4.50;;
14191;SDS011;7177;48.572;7.838;2022-11-15T16:26:44;6.23;;;4.40;;
14191;SDS011;7177;48.572;7.838;2022-11-15T16:29:11;6.83;;;5.07;;
14191;SDS011;7177;48.572;7.838;2022-11-15T16:31:37;7.87;;;5.43;;
14191;SDS011;7177;48.572;7.838;2022-11-15T16:34:02;6.77;;;5.10;;
14191;SDS011;7177;48.572;7.838;2022-11-15T16:36:30;9.07;;;6.23;;
14191;SDS011;7177;48.572;7.838;2022-11-15T16:38:58;7.27;;;5.60;;
14191;SDS011;7177;48.572;7.838;2022-11-15T16:41:24;10.97;;;8.20;;
14191;SDS011;7177;48.572;7.838;2022-11-15T16:43:49;12.70;;;8.90;;
14191;SDS011;7177;48.572;7.838;2022-11-15T16:46:22;11.93;;;7.63;;
14191;SDS011;7177;48.572;7.838;2022-11-15T16:48:50;13.83;;;8.23;;
14191;SDS011;7177;48.572;7.838;2022-11-15T16:51:16;11.03;;;7.73;;
14191;SDS011;7177;48.572;7.838;2022-11-15T16:53:42;8.63;;;6.40;;
14191;SDS011;7177;48.572;7.838;2022-11-15T16:56:24;10.27;;;6.57;;
14191;SDS011;7177;48.572;7.838;2022-11-15T16:58:50;13.53;;;7.60;;
14191;SDS011;7177;48.572;7.838;2022-11-15T17:01:21;10.77;;;7.70;;
14191;SDS011;7177;48.572;7.838;2022-11-15T17:03:49;9.83;;;6.90;;